IPQ YSSY-YBTH
Flight info
| Callsign | IPQ |
|---|---|
| Flight time | N/A |
| Altitude | 14000 |
| Route | TESAT A576 KADOM W386 BTH |
| Aircraft | PC12/L-SDFGRWY/S |
Departure
| Time | 2026-05-07 02:01 |
|---|---|
| Airport | Sydney Kingsford Smith International Airport (YSSY) |
Arrival
| Time | N/A |
|---|---|
| Airport | Bathurst Airport (YBTH) |
| Time | Latitude | Longitude | Altitude | Speed | Heading |
|---|---|---|---|---|---|
| 2026-05-07 01:47 | -33.93408 | 151.18826 | 26 ft | 0 kts | 188° |
| 2026-05-07 01:58 | -33.93410 | 151.18826 | 26 ft | 2 kts | 185° |
| 2026-05-07 01:58 | -33.93440 | 151.18850 | 26 ft | 9 kts | 142° |
| 2026-05-07 01:58 | -33.93496 | 151.18853 | 26 ft | 7 kts | 191° |
| 2026-05-07 01:59 | -33.93538 | 151.18842 | 26 ft | 5 kts | 189° |
| 2026-05-07 01:59 | -33.93566 | 151.18844 | 26 ft | 4 kts | 166° |
| 2026-05-07 01:59 | -33.93597 | 151.18879 | 26 ft | 10 kts | 114° |
| 2026-05-07 01:59 | -33.93648 | 151.18931 | 25 ft | 10 kts | 179° |
| 2026-05-07 02:00 | -33.93727 | 151.18941 | 21 ft | 13 kts | 190° |
| 2026-05-07 02:00 | -33.93786 | 151.18847 | 23 ft | 25 kts | 255° |
| 2026-05-07 02:00 | -33.93874 | 151.18477 | 26 ft | 63 kts | 254° |
| 2026-05-07 02:00 | -33.94017 | 151.17867 | 75 ft | 84 kts | 255° |
| 2026-05-07 02:01 | -33.94128 | 151.17135 | 260 ft | 97 kts | 266° |
| 2026-05-07 02:01 | -33.93989 | 151.16268 | 525 ft | 115 kts | 283° |
| 2026-05-07 02:01 | -33.93709 | 151.15286 | 819 ft | 130 kts | 287° |
| 2026-05-07 02:01 | -33.93409 | 151.14290 | 1331 ft | 123 kts | 284° |
| 2026-05-07 02:02 | -33.93129 | 151.13320 | 1770 ft | 124 kts | 283° |
| 2026-05-07 02:02 | -33.92858 | 151.12336 | 2204 ft | 125 kts | 284° |
| 2026-05-07 02:02 | -33.92590 | 151.11334 | 2650 ft | 126 kts | 284° |
| 2026-05-07 02:02 | -33.92324 | 151.10323 | 3119 ft | 127 kts | 284° |
| 2026-05-07 02:03 | -33.92057 | 151.09306 | 3579 ft | 128 kts | 283° |
| 2026-05-07 02:03 | -33.91790 | 151.08283 | 4023 ft | 128 kts | 283° |
| 2026-05-07 02:03 | -33.91524 | 151.07262 | 4485 ft | 128 kts | 281° |
| 2026-05-07 02:03 | -33.91258 | 151.06243 | 4965 ft | 128 kts | 280° |
| 2026-05-07 02:04 | -33.90990 | 151.05218 | 5425 ft | 129 kts | 279° |
| 2026-05-07 02:04 | -33.90720 | 151.04182 | 5847 ft | 130 kts | 278° |
| 2026-05-07 02:04 | -33.90453 | 151.03158 | 6288 ft | 130 kts | 277° |
| 2026-05-07 02:04 | -33.90180 | 151.02109 | 6699 ft | 132 kts | 277° |
| 2026-05-07 02:05 | -33.89905 | 151.01059 | 7114 ft | 132 kts | 277° |
| 2026-05-07 02:05 | -33.89630 | 151.00012 | 7533 ft | 131 kts | 277° |
| 2026-05-07 02:05 | -33.89352 | 150.98952 | 7959 ft | 131 kts | 278° |
| 2026-05-07 02:05 | -33.89082 | 150.97921 | 8397 ft | 131 kts | 278° |
| 2026-05-07 02:06 | -33.88809 | 150.96878 | 8887 ft | 131 kts | 279° |
| 2026-05-07 02:06 | -33.88625 | 150.96172 | 9234 ft | 130 kts | 279° |
| 2026-05-07 02:06 | -33.88354 | 150.95138 | 9728 ft | 130 kts | 279° |
| 2026-05-07 02:06 | -33.87995 | 150.93767 | 10334 ft | 130 kts | 281° |
| 2026-05-07 02:07 | -33.87815 | 150.93083 | 10642 ft | 129 kts | 282° |
| 2026-05-07 02:07 | -33.87278 | 150.91039 | 11552 ft | 127 kts | 284° |
| 2026-05-07 02:07 | -33.87014 | 150.90035 | 12019 ft | 125 kts | 285° |
| 2026-05-07 02:08 | -33.86753 | 150.89041 | 12491 ft | 124 kts | 286° |
| 2026-05-07 02:08 | -33.86495 | 150.88058 | 12955 ft | 123 kts | 287° |
| 2026-05-07 02:08 | -33.86238 | 150.87079 | 13391 ft | 123 kts | 288° |
| 2026-05-07 02:08 | -33.85982 | 150.86109 | 13853 ft | 121 kts | 289° |
| 2026-05-07 02:09 | -33.85713 | 150.85096 | 13996 ft | 136 kts | 289° |
| 2026-05-07 02:09 | -33.85404 | 150.83942 | 14021 ft | 153 kts | 289° |
| 2026-05-07 02:09 | -33.85067 | 150.82672 | 14036 ft | 166 kts | 289° |
| 2026-05-07 02:09 | -33.84706 | 150.81304 | 14041 ft | 176 kts | 289° |
| 2026-05-07 02:10 | -33.84330 | 150.79875 | 14040 ft | 182 kts | 289° |
| 2026-05-07 02:10 | -33.83943 | 150.78403 | 14044 ft | 187 kts | 289° |
| 2026-05-07 02:10 | -33.83547 | 150.76899 | 14046 ft | 190 kts | 289° |
| 2026-05-07 02:10 | -33.83146 | 150.75377 | 14037 ft | 192 kts | 289° |
| 2026-05-07 02:11 | -33.82741 | 150.73840 | 14039 ft | 194 kts | 287° |
| 2026-05-07 02:11 | -33.82333 | 150.72285 | 14040 ft | 196 kts | 287° |
| 2026-05-07 02:11 | -33.81921 | 150.70719 | 14048 ft | 197 kts | 287° |
| 2026-05-07 02:11 | -33.81782 | 150.70189 | 14052 ft | 197 kts | 287° |